createdAt,value
2022-09-15T00:00:00.976Z,14
2022-09-15T00:03:01.149Z,14.1
2022-09-15T00:04:01.036Z,14.2
2022-09-15T00:06:01.023Z,14.2
2022-09-15T00:07:00.991Z,14.1
2022-09-15T00:09:00.945Z,14.2
2022-09-15T00:10:00.939Z,14.1
2022-09-15T00:15:00.922Z,14
2022-09-15T00:18:00.968Z,14.2
2022-09-15T00:20:00.967Z,14.1
2022-09-15T00:22:00.957Z,14
2022-09-15T00:23:01.041Z,14.1
2022-09-15T00:25:00.961Z,14
2022-09-15T00:27:00.991Z,14.1
2022-09-15T00:28:00.976Z,14
2022-09-15T00:31:01.011Z,14.1
2022-09-15T00:33:00.965Z,14
2022-09-15T00:36:00.969Z,14.1
2022-09-15T00:38:00.910Z,14
2022-09-15T00:39:01.014Z,14.1
2022-09-15T00:41:00.986Z,14.1
2022-09-15T00:43:00.911Z,14.1
2022-09-15T00:45:00.939Z,14
2022-09-15T00:47:18.060Z,13.9
2022-09-15T00:49:00.922Z,14
2022-09-15T00:50:00.918Z,13.9
2022-09-15T00:51:00.918Z,14
2022-09-15T00:55:00.957Z,13.9
2022-09-15T00:58:00.944Z,13.8
2022-09-15T00:59:00.920Z,13.9
2022-09-15T01:02:00.933Z,13.8
2022-09-15T01:06:00.962Z,13.9
2022-09-15T01:08:00.908Z,13.8
2022-09-15T01:09:00.980Z,13.7
2022-09-15T01:13:00.912Z,13.7
2022-09-15T01:15:00.956Z,13.9
2022-09-15T01:18:00.978Z,13.7
2022-09-15T01:25:00.910Z,13.7
2022-09-15T01:26:00.941Z,13.8
2022-09-15T01:30:01.051Z,13.9
2022-09-15T01:32:01.006Z,13.9
2022-09-15T01:34:01.020Z,13.8
2022-09-15T01:36:00.916Z,13.7
2022-09-15T01:37:01.141Z,13.8
2022-09-15T01:39:00.926Z,13.7
2022-09-15T01:41:00.908Z,13.9
2022-09-15T01:42:00.911Z,13.8
2022-09-15T01:46:00.975Z,13.7
2022-09-15T01:49:00.936Z,13.8
2022-09-15T01:51:01.115Z,13.7
2022-09-15T01:52:01.068Z,13.8
2022-09-15T01:55:00.954Z,13.9
2022-09-15T01:56:00.962Z,13.8
2022-09-15T01:57:00.967Z,13.9
2022-09-15T01:59:00.952Z,14
2022-09-15T02:01:00.982Z,13.8
2022-09-15T02:06:00.960Z,13.7
2022-09-15T02:07:00.950Z,13.9
2022-09-15T02:09:00.926Z,13.7
2022-09-15T02:10:00.922Z,13.8
2022-09-15T02:13:00.957Z,13.9
2022-09-15T02:15:00.946Z,13.8
2022-09-15T02:16:01.075Z,13.9
2022-09-15T02:18:00.899Z,13.9
2022-09-15T02:19:00.967Z,13.8
2022-09-15T02:21:00.955Z,13.9
2022-09-15T02:22:00.968Z,13.8
2022-09-15T02:24:00.925Z,13.8
2022-09-15T02:25:00.917Z,13.7
2022-09-15T02:26:00.956Z,13.8
2022-09-15T02:35:00.927Z,13.7
2022-09-15T02:36:01.091Z,13.8
2022-09-15T02:38:00.925Z,13.6
2022-09-15T02:41:00.938Z,13.6
2022-09-15T02:43:00.908Z,13.7
2022-09-15T02:44:00.935Z,13.6
2022-09-15T02:47:00.913Z,13.6
2022-09-15T02:49:00.944Z,13.7
2022-09-15T02:53:00.951Z,13.6
2022-09-15T02:56:00.993Z,13.6
2022-09-15T02:57:00.961Z,13.5
2022-09-15T02:58:01.003Z,13.6
2022-09-15T03:05:00.967Z,13.4
2022-09-15T03:06:00.956Z,13.6
2022-09-15T03:13:00.922Z,13.7
2022-09-15T03:14:00.970Z,13.4
2022-09-15T03:15:00.950Z,13.6
2022-09-15T03:16:01.035Z,13.5
2022-09-15T03:19:01.031Z,13.6
2022-09-15T03:21:00.982Z,13.5
2022-09-15T03:22:00.975Z,13.6
2022-09-15T03:24:00.967Z,13.5
2022-09-15T03:25:00.942Z,13.6
2022-09-15T03:28:00.957Z,13.5
2022-09-15T03:31:00.999Z,13.4
2022-09-15T03:32:01.000Z,13.5
2022-09-15T03:35:00.932Z,13.5
2022-09-15T03:36:00.986Z,13.6
2022-09-15T03:37:01.051Z,13.4
2022-09-15T03:39:01.220Z,13.5
2022-09-15T03:42:00.918Z,13.6
2022-09-15T03:43:00.953Z,13.4
2022-09-15T03:47:00.928Z,13.3
2022-09-15T03:49:00.914Z,13.4
2022-09-15T03:52:00.988Z,13.3
2022-09-15T03:57:00.962Z,13.4
2022-09-15T03:58:00.943Z,13.3
2022-09-15T04:00:00.986Z,13.2
2022-09-15T04:02:01.008Z,13.3
2022-09-15T04:05:00.957Z,13.1
2022-09-15T04:07:00.911Z,13.2
2022-09-15T04:11:01.045Z,13.1
2022-09-15T04:15:00.906Z,13.1
2022-09-15T04:16:01.016Z,13.3
2022-09-15T04:20:00.906Z,13.2
2022-09-15T04:21:01.071Z,13.3
2022-09-15T04:23:00.925Z,13.3
2022-09-15T04:25:00.939Z,13.1
2022-09-15T04:31:00.989Z,13.3
2022-09-15T04:34:00.927Z,13.2
2022-09-15T04:35:00.906Z,13.4
2022-09-15T04:37:01.066Z,13.4
2022-09-15T04:39:00.922Z,13.4
2022-09-15T04:40:00.995Z,13.3
2022-09-15T04:44:00.922Z,13.5
2022-09-15T04:45:00.921Z,13.4
2022-09-15T04:47:00.998Z,13.5
2022-09-15T04:49:00.917Z,13.4
2022-09-15T04:52:00.950Z,13.5
2022-09-15T04:53:00.937Z,13.3
2022-09-15T04:55:00.971Z,13.4
2022-09-15T04:57:00.960Z,13.4
2022-09-15T04:58:00.969Z,13.3
2022-09-15T05:01:00.989Z,13.3
2022-09-15T05:04:01.271Z,13.4
2022-09-15T05:14:01.128Z,13.2
2022-09-15T05:16:01.037Z,13.2
2022-09-15T05:17:01.020Z,13.3
2022-09-15T05:22:01.074Z,13.2
2022-09-15T05:25:01.000Z,13.3
2022-09-15T05:28:01.084Z,13.4
2022-09-15T05:31:01.178Z,13.2
2022-09-15T05:32:01.094Z,13.3
2022-09-15T05:34:01.161Z,13.2
2022-09-15T05:40:03.207Z,13.4
2022-09-15T05:41:00.947Z,13.3
2022-09-15T05:44:00.948Z,13.4
2022-09-15T05:45:00.972Z,13.3
2022-09-15T05:47:00.991Z,13.4
2022-09-15T05:49:00.955Z,13.3
2022-09-15T05:52:00.952Z,13.2
2022-09-15T05:53:00.963Z,13.4
2022-09-15T05:55:00.924Z,13.1
2022-09-15T05:56:00.970Z,13.2
2022-09-15T05:58:00.902Z,13.2
2022-09-15T06:00:00.974Z,13.2
2022-09-15T06:02:00.925Z,13.2
2022-09-15T06:03:00.915Z,13.3
2022-09-15T06:05:00.951Z,13.3
2022-09-15T06:07:00.941Z,13.3
2022-09-15T06:09:01.148Z,13.5
2022-09-15T06:10:00.999Z,13.4
2022-09-15T06:12:00.924Z,13.5
2022-09-15T06:14:00.906Z,13.6
2022-09-15T06:15:00.939Z,13.5
2022-09-15T06:17:01.002Z,13.7
2022-09-15T06:19:00.954Z,13.5
2022-09-15T06:20:00.971Z,13.6
2022-09-15T06:23:00.916Z,13.7
2022-09-15T06:24:00.937Z,13.8
2022-09-15T06:26:00.900Z,13.8
2022-09-15T06:29:00.966Z,13.7
2022-09-15T06:32:00.946Z,13.8
2022-09-15T06:33:00.983Z,13.7
2022-09-15T06:35:00.918Z,13.8
2022-09-15T06:39:00.899Z,13.7
2022-09-15T06:40:01.028Z,13.8
2022-09-15T06:42:03.149Z,13.7
2022-09-15T06:45:00.927Z,13.6
2022-09-15T06:46:00.981Z,13.7
2022-09-15T06:48:20.542Z,13.6
2022-09-15T06:49:00.905Z,13.7
2022-09-15T06:50:00.952Z,13.5
2022-09-15T06:51:00.903Z,13.6
2022-09-15T06:52:00.904Z,13.7
2022-09-15T06:53:00.950Z,13.6
2022-09-15T06:54:00.950Z,13.5
2022-09-15T06:56:00.910Z,13.4
2022-09-15T06:57:00.921Z,13.5
2022-09-15T07:01:00.982Z,13.6
2022-09-15T07:03:00.967Z,13.5
2022-09-15T07:08:00.899Z,13.4
2022-09-15T07:09:00.953Z,13.5
2022-09-15T07:11:00.935Z,13.5
2022-09-15T07:12:01.041Z,13.4
2022-09-15T07:14:00.933Z,13.4
2022-09-15T07:15:01.050Z,13.5
2022-09-15T07:16:01.026Z,13.6
2022-09-15T07:19:00.979Z,13.7
2022-09-15T07:20:00.949Z,13.5
2022-09-15T07:21:00.998Z,13.7
2022-09-15T07:27:01.006Z,13.8
2022-09-15T07:31:01.113Z,13.9
2022-09-15T07:33:01.142Z,13.9
2022-09-15T07:36:00.979Z,14
2022-09-15T07:37:01.064Z,13.9
2022-09-15T07:38:01.155Z,14
2022-09-15T07:40:01.069Z,13.9
2022-09-15T07:41:01.102Z,14.1
2022-09-15T07:43:01.155Z,14.2
2022-09-15T07:44:01.268Z,14.1
2022-09-15T07:46:01.200Z,14.1
2022-09-15T07:48:00.953Z,14.2
2022-09-15T07:49:00.934Z,14.3
2022-09-15T07:50:00.938Z,14.2
2022-09-15T07:51:00.954Z,14.3
2022-09-15T07:52:00.946Z,14.1
2022-09-15T07:54:00.939Z,14.3
2022-09-15T07:56:00.963Z,14.4
2022-09-15T07:58:00.923Z,14.3
2022-09-15T08:00:00.950Z,14.4
2022-09-15T08:03:00.925Z,14.4
2022-09-15T08:04:01.055Z,14.2
2022-09-15T08:06:00.914Z,14.2
2022-09-15T08:07:00.921Z,14.3
2022-09-15T08:08:00.923Z,14.4
2022-09-15T08:11:00.936Z,14.5
2022-09-15T08:13:00.912Z,14.6
2022-09-15T08:14:00.998Z,14.7
2022-09-15T08:17:00.906Z,14.6
2022-09-15T08:19:00.944Z,14.7
2022-09-15T08:22:00.956Z,14.6
2022-09-15T08:24:00.960Z,14.4
2022-09-15T08:26:00.898Z,14.5
2022-09-15T08:27:00.951Z,14.8
2022-09-15T08:28:00.930Z,14.5
2022-09-15T08:29:00.957Z,14.9
2022-09-15T08:30:00.970Z,14.8
2022-09-15T08:32:00.910Z,14.9
2022-09-15T08:33:00.930Z,15
2022-09-15T08:36:00.904Z,14.9
2022-09-15T08:37:00.934Z,15
2022-09-15T08:40:00.954Z,15.2
2022-09-15T08:41:00.939Z,15
2022-09-15T08:44:00.931Z,15.2
2022-09-15T08:52:00.905Z,15.3
2022-09-15T08:53:00.982Z,15.2
2022-09-15T08:54:00.920Z,15.3
2022-09-15T08:55:00.905Z,15.2
2022-09-15T08:57:00.903Z,15.1
2022-09-15T08:58:00.921Z,15.2
2022-09-15T09:01:00.924Z,15.3
2022-09-15T09:02:00.954Z,15.2
2022-09-15T09:05:00.926Z,15.3
2022-09-15T09:06:00.959Z,15.1
2022-09-15T09:10:00.947Z,15.3
2022-09-15T09:12:00.925Z,15.2
2022-09-15T09:13:00.936Z,15.3
2022-09-15T09:15:00.967Z,15.2
2022-09-15T09:17:00.887Z,15.3
2022-09-15T09:18:00.945Z,15.4
2022-09-15T09:20:00.917Z,15.5
2022-09-15T09:21:00.920Z,15.4
2022-09-15T09:22:00.974Z,15.3
2022-09-15T09:23:00.954Z,15.4
2022-09-15T09:28:00.943Z,15.2
2022-09-15T09:30:01.103Z,15.1
2022-09-15T09:32:01.055Z,15
2022-09-15T09:34:00.998Z,15.1
2022-09-15T09:36:00.940Z,15
2022-09-15T09:38:00.902Z,15.1
2022-09-15T09:39:00.943Z,15
2022-09-15T09:41:02.435Z,15
2022-09-15T09:43:00.916Z,14.9
2022-09-15T09:47:00.938Z,14.9
2022-09-15T09:49:00.976Z,15
2022-09-15T09:50:00.982Z,14.9
2022-09-15T09:52:00.996Z,14.9
2022-09-15T09:55:00.886Z,14.7
2022-09-15T09:56:00.926Z,14.8
2022-09-15T09:58:00.902Z,14.6
2022-09-15T09:59:00.923Z,14.7
2022-09-15T10:00:00.942Z,14.6
2022-09-15T10:02:00.921Z,14.6
2022-09-15T10:03:00.951Z,14.7
2022-09-15T10:05:00.922Z,14.6
2022-09-15T10:06:00.970Z,14.7
2022-09-15T10:09:01.103Z,14.5
2022-09-15T10:12:00.906Z,14.3
2022-09-15T10:14:00.907Z,14.4
2022-09-15T10:15:00.896Z,14.3
2022-09-15T10:17:01.002Z,14.2
2022-09-15T10:18:00.940Z,14.3
2022-09-15T10:20:00.950Z,14.3
2022-09-15T10:21:00.961Z,14.1
2022-09-15T10:23:00.896Z,14.1
2022-09-15T10:24:00.895Z,14.2
2022-09-15T10:26:00.909Z,14.1
2022-09-15T10:28:00.912Z,14.1
2022-09-15T10:30:01.103Z,14.2
2022-09-15T10:32:01.047Z,14
2022-09-15T10:34:00.929Z,14.1
2022-09-15T10:36:00.935Z,14
2022-09-15T10:37:00.894Z,14.2
2022-09-15T10:40:00.995Z,14.3
2022-09-15T10:44:00.909Z,14.4
2022-09-15T10:45:00.941Z,14.5
2022-09-15T10:47:00.943Z,14.6
2022-09-15T10:48:00.930Z,14.7
2022-09-15T10:49:00.913Z,14.6
2022-09-15T10:50:00.902Z,14.8
2022-09-15T10:51:00.933Z,14.7
2022-09-15T10:52:00.945Z,15
2022-09-15T10:53:00.939Z,15.1
2022-09-15T10:55:00.935Z,15.2
2022-09-15T10:56:00.914Z,15.3
2022-09-15T10:57:00.941Z,15.6
2022-09-15T10:58:00.954Z,15.8
2022-09-15T11:00:01.025Z,15.8
2022-09-15T11:02:00.997Z,16.2
2022-09-15T11:03:00.952Z,16.1
2022-09-15T11:05:00.966Z,16.5
2022-09-15T11:07:00.948Z,16.7
2022-09-15T11:09:00.915Z,16.8
2022-09-15T11:11:00.890Z,17
2022-09-15T11:12:00.929Z,17.1
2022-09-15T11:15:00.970Z,17.2
2022-09-15T11:19:00.907Z,17.3
2022-09-15T11:21:00.914Z,17.4
2022-09-15T11:22:00.965Z,17.5
2022-09-15T11:24:00.916Z,17.6
2022-09-15T11:26:00.915Z,17.7
2022-09-15T11:27:00.908Z,17.9
2022-09-15T11:28:00.915Z,18
2022-09-15T11:29:01.001Z,18.2
2022-09-15T11:31:01.047Z,18.3
2022-09-15T11:33:00.980Z,18.4
2022-09-15T11:37:00.933Z,18.3
2022-09-15T11:38:00.946Z,18.4
2022-09-15T11:40:00.933Z,18.5
2022-09-15T11:41:00.985Z,18.3
2022-09-15T11:43:00.911Z,18.1
2022-09-15T11:44:00.918Z,18
2022-09-15T11:46:01.021Z,17.8
2022-09-15T11:47:01.031Z,17.7
2022-09-15T11:50:00.917Z,17.6
2022-09-15T11:52:00.926Z,17.7
2022-09-15T11:56:00.908Z,17.8
2022-09-15T11:58:00.943Z,17.9
2022-09-15T11:59:00.913Z,18
2022-09-15T12:00:00.922Z,17.8
2022-09-15T12:01:00.943Z,17.9
2022-09-15T12:04:00.929Z,17.8
2022-09-15T12:05:00.919Z,17.9
2022-09-15T12:07:00.927Z,17.8
2022-09-15T12:08:00.929Z,17.9
2022-09-15T12:11:00.952Z,17.8
2022-09-15T12:13:00.944Z,17.9
2022-09-15T12:14:00.898Z,17.8
2022-09-15T12:15:00.946Z,17.7
2022-09-15T12:16:01.028Z,17.6
2022-09-15T12:18:03.565Z,17.7
2022-09-15T12:19:00.957Z,17.8
2022-09-15T12:21:00.983Z,17.9
2022-09-15T12:23:01.013Z,17.9
2022-09-15T12:25:01.373Z,18.2
2022-09-15T12:26:00.939Z,18.3
2022-09-15T12:28:00.944Z,18.4
2022-09-15T12:29:00.918Z,18.5
2022-09-15T12:30:00.926Z,18.4
2022-09-15T12:31:01.118Z,18.6
2022-09-15T12:33:00.918Z,18.7
2022-09-15T12:34:01.022Z,18.6
2022-09-15T12:38:00.902Z,18.8
2022-09-15T12:39:01.002Z,18.7
2022-09-15T12:42:01.023Z,18.8
2022-09-15T12:45:00.906Z,18.7
2022-09-15T12:46:00.958Z,18.8
2022-09-15T12:47:00.967Z,18.9
2022-09-15T12:49:00.941Z,18.6
2022-09-15T12:51:00.950Z,18.5
2022-09-15T12:53:00.936Z,18.5
2022-09-15T12:57:00.948Z,18.7
2022-09-15T13:02:00.986Z,18.8
2022-09-15T13:03:01.010Z,18.7
2022-09-15T13:05:00.910Z,18.9
2022-09-15T13:06:00.952Z,18.8
2022-09-15T13:08:00.966Z,18.8
2022-09-15T13:09:00.987Z,18.9
2022-09-15T13:12:00.918Z,18.7
2022-09-15T13:14:00.968Z,18.7
2022-09-15T13:16:01.026Z,18.6
2022-09-15T13:17:00.960Z,18.5
2022-09-15T13:19:00.930Z,18.6
2022-09-15T13:21:00.949Z,18.7
2022-09-15T13:23:00.893Z,18.6
2022-09-15T13:24:00.963Z,18.5
2022-09-15T13:27:00.932Z,18.5
2022-09-15T13:29:00.939Z,18.7
2022-09-15T13:30:01.093Z,18.6
2022-09-15T13:31:01.170Z,18.5
2022-09-15T13:32:01.207Z,18.8
2022-09-15T13:35:07.269Z,18.7
2022-09-15T13:38:06.664Z,18.5
2022-09-15T13:41:00.961Z,18.4
2022-09-15T13:43:00.937Z,18.3
2022-09-15T13:45:01.007Z,18.2
2022-09-15T13:47:01.026Z,18.1
2022-09-15T13:49:00.998Z,18
2022-09-15T13:50:01.064Z,18.1
2022-09-15T13:54:00.983Z,18
2022-09-15T13:55:01.129Z,18.1
2022-09-15T13:57:00.935Z,17.9
2022-09-15T14:00:00.996Z,18
2022-09-15T14:01:00.995Z,18.2
2022-09-15T14:02:01.060Z,17.9
2022-09-15T14:03:00.917Z,18.1
2022-09-15T14:04:00.903Z,18
2022-09-15T14:07:01.284Z,17.9
2022-09-15T14:08:01.319Z,18.1
2022-09-15T14:09:00.989Z,18
2022-09-15T14:12:01.027Z,18
2022-09-15T14:14:00.945Z,17.7
2022-09-15T14:16:00.905Z,17.6
2022-09-15T14:17:00.984Z,17.5
2022-09-15T14:18:00.910Z,17.6
2022-09-15T14:20:00.919Z,17.5
2022-09-15T14:23:00.983Z,17.1
2022-09-15T14:25:00.912Z,17.1
2022-09-15T14:29:00.995Z,17
2022-09-15T14:30:00.979Z,16.9
2022-09-15T14:32:01.027Z,17
2022-09-15T14:36:00.908Z,17.1
2022-09-15T14:37:00.901Z,16.9
2022-09-15T14:41:00.909Z,16.8
2022-09-15T14:43:00.913Z,16.7
2022-09-15T14:46:04.916Z,16.7
2022-09-15T14:49:00.981Z,16.6
2022-09-15T14:50:00.945Z,16.5
2022-09-15T14:53:00.917Z,16.5
2022-09-15T14:54:00.915Z,16.6
2022-09-15T14:55:00.948Z,16.5
2022-09-15T14:56:04.445Z,16.4
2022-09-15T14:57:00.926Z,16.5
2022-09-15T14:58:00.960Z,16.4
2022-09-15T15:00:00.980Z,16.5
2022-09-15T15:02:01.026Z,16.4
2022-09-15T15:04:00.953Z,16.5
2022-09-15T15:10:00.915Z,16.4
2022-09-15T15:11:00.994Z,16.5
2022-09-15T15:14:00.906Z,16.5
2022-09-15T15:15:00.958Z,16.6
2022-09-15T15:17:01.032Z,16.7
2022-09-15T15:18:00.926Z,16.6
2022-09-15T15:19:00.958Z,16.7
2022-09-15T15:20:00.921Z,16.6
2022-09-15T15:22:00.945Z,16.6
2022-09-15T15:23:00.970Z,16.7
2022-09-15T15:25:00.934Z,16.4
2022-09-15T15:27:00.940Z,16.6
2022-09-15T15:28:00.937Z,16.3
2022-09-15T15:32:00.970Z,16.3
2022-09-15T15:34:00.954Z,16.2
2022-09-15T15:38:00.963Z,16.1
2022-09-15T15:41:00.896Z,16.1
2022-09-15T15:43:00.979Z,16.2
2022-09-15T15:44:00.949Z,16.1
2022-09-15T15:46:01.013Z,16.1
2022-09-15T15:47:00.933Z,16.3
2022-09-15T15:49:00.941Z,16
2022-09-15T15:50:13.888Z,16.1
2022-09-15T15:51:00.899Z,16.2
2022-09-15T15:52:00.931Z,16.1
2022-09-15T15:53:00.933Z,16
2022-09-15T15:55:00.903Z,16.2
2022-09-15T15:56:00.908Z,16.1
2022-09-15T15:57:00.911Z,16
2022-09-15T16:01:00.937Z,16.2
2022-09-15T16:02:00.998Z,16
2022-09-15T16:03:01.014Z,16.1
2022-09-15T16:05:00.945Z,15.9
2022-09-15T16:08:00.940Z,16
2022-09-15T16:10:00.953Z,15.8
2022-09-15T16:12:00.910Z,15.8
2022-09-15T16:13:00.970Z,15.9
2022-09-15T16:14:00.986Z,15.8
2022-09-15T16:18:00.933Z,15.9
2022-09-15T16:22:00.939Z,15.7
2022-09-15T16:24:00.909Z,15.6
2022-09-15T16:25:00.920Z,15.5
2022-09-15T16:27:00.972Z,15.4
2022-09-15T16:28:00.938Z,15.5
2022-09-15T16:30:00.944Z,15.4
2022-09-15T16:32:01.029Z,15.5
2022-09-15T16:33:01.064Z,15.4
2022-09-15T16:35:00.903Z,15.5
2022-09-15T16:37:00.955Z,15.3
2022-09-15T16:39:00.895Z,15.4
2022-09-15T16:40:01.209Z,15.3
2022-09-15T16:42:00.980Z,15.3
2022-09-15T16:46:00.909Z,15.5
2022-09-15T16:47:01.007Z,15.3
2022-09-15T16:48:00.907Z,15.2
2022-09-15T16:49:00.939Z,15.3
2022-09-15T16:52:00.936Z,15.1
2022-09-15T16:55:00.901Z,15.2
2022-09-15T16:56:00.898Z,15.1
2022-09-15T16:59:00.976Z,15
2022-09-15T17:00:00.897Z,15.1
2022-09-15T17:03:00.902Z,14.7
2022-09-15T17:05:00.940Z,14.6
2022-09-15T17:06:00.963Z,14.7
2022-09-15T17:08:00.974Z,14.5
2022-09-15T17:11:00.951Z,14.4
2022-09-15T17:13:00.967Z,14.3
2022-09-15T17:19:00.951Z,14.2
2022-09-15T17:21:00.917Z,14.1
2022-09-15T17:23:00.946Z,14
2022-09-15T17:24:00.938Z,14.1
2022-09-15T17:26:00.991Z,13.9
2022-09-15T17:32:00.937Z,13.7
2022-09-15T17:33:00.927Z,13.6
2022-09-15T17:35:00.932Z,13.6
2022-09-15T17:37:00.911Z,13.7
2022-09-15T17:38:00.989Z,13.5
2022-09-15T17:40:00.962Z,13.5
2022-09-15T17:44:00.946Z,13.3
2022-09-15T17:46:00.984Z,13.3
2022-09-15T17:47:01.062Z,13.2
2022-09-15T17:51:00.991Z,13
2022-09-15T17:54:01.020Z,13
2022-09-15T17:59:00.894Z,12.8
2022-09-15T18:01:00.913Z,13
2022-09-15T18:02:00.996Z,12.7
2022-09-15T18:04:00.904Z,12.6
2022-09-15T18:05:00.964Z,12.5
2022-09-15T18:07:00.948Z,12.4
2022-09-15T18:08:00.930Z,12.6
2022-09-15T18:09:01.012Z,12.5
2022-09-15T18:13:00.930Z,12.2
2022-09-15T18:14:00.946Z,12.3
2022-09-15T18:18:00.946Z,12.1
2022-09-15T18:20:00.937Z,12
2022-09-15T18:22:00.933Z,12
2022-09-15T18:25:01.027Z,12
2022-09-15T18:27:00.909Z,12
2022-09-15T18:28:00.961Z,11.9
2022-09-15T18:29:00.941Z,12.1
2022-09-15T18:31:00.972Z,11.9
2022-09-15T18:32:01.019Z,12
2022-09-15T18:34:00.935Z,11.9
2022-09-15T18:36:00.944Z,12
2022-09-15T18:37:00.951Z,11.9
2022-09-15T18:38:00.958Z,12
2022-09-15T18:39:00.952Z,11.9
2022-09-15T18:42:00.989Z,11.8
2022-09-15T18:44:00.920Z,11.9
2022-09-15T18:47:00.958Z,11.8
2022-09-15T18:48:00.933Z,12
2022-09-15T18:49:00.958Z,11.9
2022-09-15T18:55:00.962Z,11.8
2022-09-15T18:57:01.044Z,11.9
2022-09-15T18:59:00.926Z,11.8
2022-09-15T19:00:01.090Z,11.9
2022-09-15T19:03:01.003Z,11.9
2022-09-15T19:05:00.967Z,12.1
2022-09-15T19:06:01.019Z,11.9
2022-09-15T19:12:01.000Z,12.1
2022-09-15T19:14:00.905Z,12.1
2022-09-15T19:19:00.898Z,12.2
2022-09-15T19:23:00.938Z,12.3
2022-09-15T19:24:00.953Z,12.2
2022-09-15T19:26:00.943Z,12.3
2022-09-15T19:27:00.980Z,12.2
2022-09-15T19:29:00.984Z,12.3
2022-09-15T19:32:01.021Z,12.4
2022-09-15T19:34:00.977Z,12.6
2022-09-15T19:36:10.986Z,12.3
2022-09-15T19:37:00.955Z,12.4
2022-09-15T19:38:00.953Z,12.5
2022-09-15T19:40:01.066Z,12.5
2022-09-15T19:42:00.988Z,12.4
2022-09-15T19:45:00.975Z,12.5
2022-09-15T19:48:00.993Z,12.5
2022-09-15T19:50:01.082Z,12.6
2022-09-15T19:52:00.907Z,12.5
2022-09-15T19:53:00.992Z,12.4
2022-09-15T19:56:00.910Z,12.4
2022-09-15T19:59:00.956Z,12.5
2022-09-15T20:00:00.951Z,12.4
2022-09-15T20:01:00.990Z,12.5
2022-09-15T20:03:00.946Z,12.4
2022-09-15T20:05:00.925Z,12.4
2022-09-15T20:07:00.951Z,12.4
2022-09-15T20:08:00.949Z,12.5
2022-09-15T20:11:00.937Z,12.5
2022-09-15T20:12:00.950Z,12.6
2022-09-15T20:14:00.937Z,12.5
2022-09-15T20:16:00.975Z,12.5
2022-09-15T20:18:00.970Z,12.6
2022-09-15T20:21:00.928Z,12.7
2022-09-15T20:22:00.937Z,12.6
2022-09-15T20:24:00.915Z,12.5
2022-09-15T20:25:00.902Z,12.6
2022-09-15T20:27:00.944Z,12.7
2022-09-15T20:29:00.884Z,12.5
2022-09-15T20:31:00.969Z,12.4
2022-09-15T20:32:00.981Z,12.6
2022-09-15T20:34:00.933Z,12.5
2022-09-15T20:40:00.959Z,12.6
2022-09-15T20:44:00.962Z,12.6
2022-09-15T20:46:00.978Z,12.5
2022-09-15T20:47:00.900Z,12.4
2022-09-15T20:48:00.901Z,12.5
2022-09-15T20:49:00.920Z,12.4
2022-09-15T20:51:00.914Z,12.5
2022-09-15T20:53:00.896Z,12.4
2022-09-15T20:57:00.916Z,12.5
2022-09-15T21:00:00.925Z,12.5
2022-09-15T21:01:00.965Z,12.4
2022-09-15T21:04:00.937Z,12.3
2022-09-15T21:06:00.950Z,12.2
2022-09-15T21:08:00.933Z,12.3
2022-09-15T21:09:00.927Z,12.2
2022-09-15T21:13:00.888Z,12.2
2022-09-15T21:14:00.938Z,12.3
2022-09-15T21:16:01.162Z,12.2
2022-09-15T21:26:02.038Z,12.3
2022-09-15T21:28:00.905Z,12.2
2022-09-15T21:33:00.951Z,12.1
2022-09-15T21:36:00.898Z,12.2
2022-09-15T21:40:00.923Z,12.1
2022-09-15T21:41:00.914Z,12.2
2022-09-15T21:43:00.947Z,12.2
2022-09-15T21:47:00.920Z,12.3
2022-09-15T21:48:00.903Z,12.1
2022-09-15T21:50:00.939Z,12.2
2022-09-15T21:53:00.919Z,12.3
2022-09-15T21:54:00.936Z,12.1
2022-09-15T21:56:00.940Z,12.2
2022-09-15T21:58:00.892Z,12.2
2022-09-15T21:59:00.902Z,12.1
2022-09-15T22:00:01.042Z,12.2
2022-09-15T22:02:00.992Z,12.2
2022-09-15T22:04:00.951Z,12.3
2022-09-15T22:06:00.918Z,12.1
2022-09-15T22:07:00.913Z,12.2
2022-09-15T22:08:04.750Z,12.3
2022-09-15T22:09:00.944Z,12.2
2022-09-15T22:11:00.885Z,12.2
2022-09-15T22:15:01.011Z,12.1
2022-09-15T22:18:00.939Z,12.1
2022-09-15T22:19:00.940Z,12.2
2022-09-15T22:21:00.917Z,12.1
2022-09-15T22:23:00.916Z,12.3
2022-09-15T22:25:00.933Z,12.2
2022-09-15T22:27:00.945Z,12.1
2022-09-15T22:29:00.941Z,12.2
2022-09-15T22:30:00.948Z,12.3
2022-09-15T22:33:00.904Z,12
2022-09-15T22:34:00.911Z,12.1
2022-09-15T22:35:00.910Z,12.2
2022-09-15T22:36:00.966Z,12.1
2022-09-15T22:38:00.973Z,12.2
2022-09-15T22:43:00.936Z,12
2022-09-15T22:46:00.999Z,12.1
2022-09-15T22:52:00.905Z,12.2
2022-09-15T22:53:00.915Z,12.1
2022-09-15T22:55:00.990Z,12.2
2022-09-15T23:01:00.983Z,12.2
2022-09-15T23:04:00.919Z,12.2
2022-09-15T23:08:00.939Z,12.1
2022-09-15T23:11:00.955Z,12.1
2022-09-15T23:13:00.921Z,12.3
2022-09-15T23:15:00.904Z,12.1
2022-09-15T23:16:00.975Z,12.2
2022-09-15T23:20:00.891Z,12.1
2022-09-15T23:21:00.925Z,12.2
2022-09-15T23:28:00.900Z,12.1
2022-09-15T23:30:01.073Z,12.2
2022-09-15T23:33:00.902Z,12.1
2022-09-15T23:34:00.941Z,12.2
2022-09-15T23:36:00.911Z,12.2
2022-09-15T23:37:00.912Z,12.3
2022-09-15T23:38:00.939Z,12.2
2022-09-15T23:42:00.944Z,12
2022-09-15T23:44:00.928Z,12.2
2022-09-15T23:45:00.957Z,12.1
2022-09-15T23:47:00.942Z,11.9
2022-09-15T23:48:00.993Z,12.2
2022-09-15T23:50:00.940Z,12.1
2022-09-15T23:53:00.958Z,12.2
2022-09-15T23:57:00.919Z,12
